Time;durP1;ratioP1;P1;durP2;ratioP2;P2;SDS_P1;SDS_P2;PMS_P1;PMS_P2;Temp;Humidity;BMP_temperature;BMP_pressure;BME280_temperature;BME280_humidity;BME280_pressure;Samples;Min_cycle;Max_cycle;Signal;HPM_P1;HPM_P2
2023/12/20 00:01:46;;;;;;;1.23;0.90;;;12.60;1.00;;;;;;5079635;28;20177;-39
2023/12/20 00:04:12;;;;;;;1.60;1.17;;;12.80;70.00;;;;;;5078545;28;20177;-41
2023/12/20 00:06:38;;;;;;;1.53;1.10;;;13.00;99.90;;;;;;5079828;28;20185;-40
2023/12/20 00:09:03;;;;;;;1.37;1.10;;;13.20;1.00;;;;;;5061371;28;20192;-41
2023/12/20 00:11:29;;;;;;;1.30;0.97;;;13.30;99.90;;;;;;5079207;28;20242;-40
2023/12/20 00:13:54;;;;;;;3.30;1.10;;;13.50;99.90;;;;;;5077389;28;20271;-40
2023/12/20 00:16:20;;;;;;;1.67;1.27;;;13.60;1.00;;;;;;5077680;28;20205;-40
2023/12/20 00:18:45;;;;;;;2.07;1.23;;;13.70;99.90;;;;;;5079255;28;20177;-42
2023/12/20 00:21:11;;;;;;;1.67;1.20;;;13.80;99.90;;;;;;5078070;28;20253;-42
2023/12/20 00:23:36;;;;;;;1.37;1.10;;;13.60;1.00;;;;;;5079613;28;20506;-42
2023/12/20 00:26:02;;;;;;;1.53;1.10;;;13.00;99.90;;;;;;5079503;28;20181;-43
2023/12/20 00:28:28;;;;;;;1.23;1.03;;;12.50;99.90;;;;;;5061706;28;20184;-41
2023/12/20 00:30:53;;;;;;;1.63;1.20;;;11.90;99.90;;;;;;5079374;28;20455;-42
2023/12/20 00:33:19;;;;;;;1.17;0.83;;;11.50;99.90;;;;;;5078389;28;20350;-43
2023/12/20 00:35:45;;;;;;;1.30;0.90;;;11.00;99.90;;;;;;5079033;28;20605;-41
2023/12/20 00:38:11;;;;;;;1.50;0.93;;;10.70;99.90;;;;;;5079489;28;20181;-42
2023/12/20 00:40:37;;;;;;;1.63;1.07;;;10.40;1.00;;;;;;5078870;28;20447;-42
2023/12/20 00:43:02;;;;;;;1.50;0.90;;;10.10;1.00;;;;;;5078599;28;20844;-41
2023/12/20 00:45:28;;;;;;;1.43;0.93;;;9.80;99.90;;;;;;5077334;28;20239;-42
2023/12/20 00:47:54;;;;;;;1.50;1.10;;;9.60;1.00;;;;;;5059675;28;20173;-40
2023/12/20 00:50:21;;;;;;;1.57;1.00;;;9.40;1.00;;;;;;5059322;28;20475;-42
2023/12/20 00:52:47;;;;;;;1.20;0.80;;;9.30;99.90;;;;;;5077503;28;20181;-43
2023/12/20 00:55:13;;;;;;;1.50;1.00;;;9.10;1.00;;;;;;5077665;28;20425;-42
2023/12/20 00:57:38;;;;;;;1.33;0.90;;;9.10;1.00;;;;;;5043631;28;20474;-41
2023/12/20 01:00:04;;;;;;;1.40;0.90;;;9.00;58.40;;;;;;5078585;28;20246;-43
2023/12/20 01:02:30;;;;;;;1.10;0.70;;;8.90;99.90;;;;;;5077628;28;20184;-41
2023/12/20 01:04:55;;;;;;;1.13;0.80;;;8.90;99.90;;;;;;5076879;28;20431;-41
2023/12/20 01:07:21;;;;;;;1.43;0.90;;;8.80;1.00;;;;;;5076351;28;20193;-41
2023/12/20 01:09:46;;;;;;;1.20;1.07;;;8.70;1.00;;;;;;5076502;28;20204;-42
2023/12/20 01:12:12;;;;;;;1.40;0.90;;;8.70;99.90;;;;;;5075662;28;20185;-41
2023/12/20 01:14:39;;;;;;;3.47;0.87;;;8.60;99.90;;;;;;5057681;28;20332;-44
2023/12/20 01:17:04;;;;;;;1.70;1.10;;;8.60;1.00;;;;;;5041340;28;20220;-42
2023/12/20 01:19:30;;;;;;;1.70;1.27;;;8.50;1.00;;;;;;5077779;28;20887;-44
2023/12/20 01:21:55;;;;;;;1.63;1.30;;;8.50;99.90;;;;;;5077532;28;20238;-42
2023/12/20 01:24:21;;;;;;;1.40;1.10;;;8.50;99.90;;;;;;5077424;28;20261;-43
2023/12/20 01:26:47;;;;;;;1.30;0.90;;;8.50;99.90;;;;;;5076520;28;20173;-42
2023/12/20 01:29:13;;;;;;;1.37;1.10;;;8.40;99.90;;;;;;5077487;28;20243;-42
2023/12/20 01:31:40;;;;;;;1.30;1.10;;;8.40;99.90;;;;;;5076223;28;20188;-44
2023/12/20 01:34:06;;;;;;;1.57;1.00;;;8.40;99.90;;;;;;5077915;28;20648;-41
2023/12/20 01:36:31;;;;;;;1.50;1.17;;;8.40;1.00;;;;;;5077951;28;20485;-43
2023/12/20 01:38:57;;;;;;;2.13;0.80;;;8.40;1.00;;;;;;5076993;28;20177;-43
2023/12/20 01:41:22;;;;;;;1.67;0.90;;;8.30;1.00;;;;;;5058750;28;20173;-41
2023/12/20 01:43:48;;;;;;;2.33;0.93;;;8.30;1.00;;;;;;5075993;28;20181;-42
2023/12/20 01:46:14;;;;;;;1.97;1.40;;;8.30;36.80;;;;;;5077505;28;20184;-41
2023/12/20 01:48:40;;;;;;;1.37;0.70;;;8.30;99.90;;;;;;5059576;28;20467;-43
2023/12/20 01:51:06;;;;;;;1.20;0.80;;;8.30;99.90;;;;;;5059568;28;20474;-41
2023/12/20 01:53:32;;;;;;;1.20;0.80;;;8.30;99.90;;;;;;5059073;28;20419;-39
2023/12/20 01:55:58;;;;;;;1.73;0.80;;;8.30;99.90;;;;;;5058940;28;20221;-40
2023/12/20 01:58:24;;;;;;;1.23;0.77;;;8.30;99.90;;;;;;5058968;28;20427;-42
2023/12/20 02:00:50;;;;;;;1.10;0.57;;;8.30;99.90;;;;;;5059398;28;20760;-39
2023/12/20 02:03:16;;;;;;;1.13;0.80;;;8.20;1.00;;;;;;5076491;28;20454;-42
2023/12/20 02:05:42;;;;;;;0.90;0.60;;;8.20;1.00;;;;;;5059263;28;20187;-41
2023/12/20 02:08:08;;;;;;;1.57;0.70;;;8.20;1.00;;;;;;5059434;28;20415;-40
2023/12/20 02:10:35;;;;;;;1.00;0.57;;;8.10;1.00;;;;;;5076990;28;20331;-40
2023/12/20 02:13:00;;;;;;;0.93;0.70;;;8.10;1.00;;;;;;5077116;28;20208;-41
2023/12/20 02:15:26;;;;;;;1.67;0.90;;;8.10;1.00;;;;;;5076163;28;20467;-40
2023/12/20 02:17:52;;;;;;;1.00;0.70;;;8.10;1.00;;;;;;5059577;28;20598;-42
2023/12/20 02:20:17;;;;;;;3.20;0.80;;;8.10;1.00;;;;;;5077025;28;20715;-42
2023/12/20 02:22:43;;;;;;;1.13;0.70;;;8.10;1.00;;;;;;5077311;28;20205;-40
2023/12/20 02:25:08;;;;;;;1.30;0.47;;;8.10;1.00;;;;;;5076521;28;20409;-42
2023/12/20 02:27:35;;;;;;;2.10;0.63;;;8.10;14.60;;;;;;5077024;28;20204;-40
2023/12/20 02:30:00;;;;;;;0.70;0.40;;;8.10;1.00;;;;;;5059610;28;20193;-40
2023/12/20 02:32:26;;;;;;;1.10;0.60;;;8.00;6.80;;;;;;5077730;28;20829;-46
2023/12/20 02:34:51;;;;;;;1.00;0.60;;;8.00;1.00;;;;;;5077277;28;20192;-41
2023/12/20 02:37:17;;;;;;;1.20;0.50;;;8.00;1.00;;;;;;5076799;28;20209;-46
2023/12/20 02:39:42;;;;;;;1.10;0.60;;;8.00;1.00;;;;;;5077022;28;20519;-41
2023/12/20 02:42:08;;;;;;;1.53;0.60;;;8.10;1.00;;;;;;5077161;28;20187;-41
2023/12/20 02:44:34;;;;;;;0.90;0.50;;;8.10;1.00;;;;;;5080288;28;20173;-41
2023/12/20 02:46:59;;;;;;;0.80;0.50;;;8.10;1.00;;;;;;5080655;28;20181;-43
2023/12/20 02:49:25;;;;;;;1.23;0.50;;;8.10;1.00;;;;;;5080632;28;20201;-41
2023/12/20 02:51:50;;;;;;;0.80;0.40;;;8.10;1.00;;;;;;5061901;28;20618;-44
2023/12/20 02:54:16;;;;;;;1.73;0.50;;;8.10;1.00;;;;;;5080746;28;20446;-42
2023/12/20 02:56:41;;;;;;;0.80;0.50;;;8.10;1.00;;;;;;5080475;28;20197;-42
2023/12/20 02:59:08;;;;;;;0.70;0.40;;;8.10;1.00;;;;;;5080754;28;20182;-40
2023/12/20 03:01:34;;;;;;;1.00;0.47;;;8.10;1.00;;;;;;5080287;28;20169;-41
2023/12/20 03:03:59;;;;;;;0.90;0.40;;;8.10;1.00;;;;;;5079577;28;20452;-40
2023/12/20 03:06:25;;;;;;;0.90;0.50;;;8.10;1.00;;;;;;5079938;28;20188;-40
2023/12/20 03:08:50;;;;;;;0.80;0.47;;;8.10;1.00;;;;;;5080360;28;20428;-41
2023/12/20 03:11:16;;;;;;;0.70;0.40;;;8.10;1.00;;;;;;5080009;28;20192;-43
2023/12/20 03:13:41;;;;;;;2.90;0.50;;;8.10;1.00;;;;;;5080349;28;20189;-41
2023/12/20 03:16:14;;;;;;;0.80;0.43;;;8.10;1.00;;;;;;5080010;28;20221;-40
2023/12/20 03:18:40;;;;;;;0.80;0.40;;;8.10;1.00;;;;;;5080450;28;20260;-40
2023/12/20 03:21:06;;;;;;;0.70;0.33;;;8.10;1.00;;;;;;5062393;28;20534;-40
2023/12/20 03:23:34;;;;;;;0.70;0.40;;;8.10;1.00;;;;;;5079788;28;20188;-42
2023/12/20 03:26:00;;;;;;;1.37;0.50;;;8.10;1.00;;;;;;5079943;28;20427;-40
2023/12/20 03:28:27;;;;;;;0.90;0.40;;;8.10;99.90;;;;;;5080143;28;20438;-40
2023/12/20 03:30:52;;;;;;;1.17;0.40;;;8.10;99.90;;;;;;5079577;28;20447;-42
2023/12/20 03:33:18;;;;;;;0.60;0.30;;;8.10;99.90;;;;;;5079806;28;20526;-42
2023/12/20 03:35:43;;;;;;;1.00;0.40;;;8.10;99.90;;;;;;5079756;28;20180;-40
2023/12/20 03:38:09;;;;;;;0.70;0.30;;;8.10;1.00;;;;;;5079927;28;20283;-41
2023/12/20 03:40:35;;;;;;;0.70;0.30;;;8.00;1.00;;;;;;5078999;28;20180;-39
2023/12/20 03:43:00;;;;;;;0.70;0.37;;;8.00;1.00;;;;;;5079757;28;20220;-43
2023/12/20 03:45:26;;;;;;;1.10;0.40;;;8.00;1.00;;;;;;5079252;28;20178;-40
2023/12/20 03:47:56;;;;;;;0.60;0.30;;;8.00;1.00;;;;;;5079581;28;20423;-42
2023/12/20 03:50:25;;;;;;;1.47;0.40;;;8.00;1.00;;;;;;5079056;28;20232;-43
2023/12/20 03:52:50;;;;;;;0.73;0.40;;;7.90;1.00;;;;;;5078587;28;20431;-43
2023/12/20 03:55:16;;;;;;;0.90;0.40;;;8.00;1.00;;;;;;5077165;28;20450;-40
2023/12/20 03:57:41;;;;;;;0.60;0.30;;;7.90;1.50;;;;;;5078197;28;20213;-42
2023/12/20 04:00:31;;;;;;;0.80;0.50;;;7.90;36.20;;;;;;5078999;28;20181;-41
2023/12/20 04:02:57;;;;;;;0.80;0.30;;;7.90;49.10;;;;;;5077757;28;20299;-40
2023/12/20 04:05:22;;;;;;;0.70;0.30;;;7.90;89.20;;;;;;5077878;28;20518;-40
2023/12/20 04:07:50;;;;;;;1.13;0.40;;;7.90;99.90;;;;;;5060574;28;20289;-42
2023/12/20 04:10:15;;;;;;;1.77;0.40;;;7.90;99.90;;;;;;5062022;28;20177;-42
2023/12/20 04:12:41;;;;;;;0.70;0.30;;;7.90;99.90;;;;;;5060497;28;20867;-42
2023/12/20 04:15:09;;;;;;;1.13;0.40;;;7.90;99.90;;;;;;5061389;28;20272;-41
2023/12/20 04:17:35;;;;;;;0.77;0.30;;;7.90;99.90;;;;;;5079825;28;20303;-41
2023/12/20 04:20:02;;;;;;;0.73;0.40;;;7.90;99.90;;;;;;5060668;28;20494;-41
2023/12/20 04:22:28;;;;;;;0.70;0.30;;;7.80;99.90;;;;;;5078358;28;20481;-41
2023/12/20 04:24:53;;;;;;;0.67;0.27;;;7.80;99.90;;;;;;5077912;28;20408;-42
2023/12/20 04:27:19;;;;;;;1.20;0.30;;;7.80;99.90;;;;;;5077675;28;20165;-41
2023/12/20 04:29:44;;;;;;;1.23;0.60;;;7.80;99.90;;;;;;5078289;28;20514;-40
2023/12/20 04:32:10;;;;;;;0.60;0.30;;;7.80;99.90;;;;;;5061048;28;20204;-42
2023/12/20 04:34:36;;;;;;;0.70;0.30;;;7.80;99.90;;;;;;5078225;28;20235;-43
2023/12/20 04:37:02;;;;;;;0.70;0.27;;;7.80;99.90;;;;;;5077869;28;20475;-41
2023/12/20 04:39:27;;;;;;;0.93;0.30;;;7.80;98.20;;;;;;5076896;28;20416;-41
2023/12/20 04:41:53;;;;;;;0.93;0.50;;;7.80;86.40;;;;;;5076049;28;20177;-42
2023/12/20 04:44:18;;;;;;;0.70;0.40;;;7.80;8.60;;;;;;5076666;28;20182;-44
2023/12/20 04:46:44;;;;;;;0.60;0.30;;;7.70;1.00;;;;;;5078475;28;20195;-40
2023/12/20 04:49:09;;;;;;;0.90;0.30;;;7.70;14.50;;;;;;5077524;28;20230;-42
2023/12/20 04:51:35;;;;;;;0.93;0.50;;;7.70;20.70;;;;;;5077760;28;20224;-42
2023/12/20 04:54:01;;;;;;;0.90;0.50;;;7.70;6.10;;;;;;5077910;28;20542;-44
2023/12/20 04:56:27;;;;;;;0.90;0.57;;;7.70;10.50;;;;;;5077009;28;20204;-42
2023/12/20 04:58:53;;;;;;;0.80;0.40;;;7.70;2.80;;;;;;5075537;28;20434;-42
2023/12/20 05:01:18;;;;;;;1.00;0.50;;;7.70;1.00;;;;;;5075021;28;20433;-41
2023/12/20 05:03:44;;;;;;;0.80;0.40;;;7.70;1.00;;;;;;5075574;28;20455;-42
2023/12/20 05:06:10;;;;;;;1.00;0.40;;;7.70;1.00;;;;;;5074755;28;20198;-43
2023/12/20 05:08:35;;;;;;;0.80;0.37;;;7.70;1.00;;;;;;5074530;28;20537;-41
2023/12/20 05:11:01;;;;;;;1.33;0.30;;;7.70;1.00;;;;;;5074190;28;20516;-42
2023/12/20 05:13:27;;;;;;;0.70;0.40;;;7.70;1.00;;;;;;5055684;28;20185;-40
2023/12/20 05:15:52;;;;;;;1.20;0.57;;;7.70;1.00;;;;;;5073313;28;20266;-42
2023/12/20 05:18:18;;;;;;;0.90;0.40;;;7.70;1.00;;;;;;5072277;28;20317;-44
2023/12/20 05:20:43;;;;;;;1.33;0.40;;;7.70;1.00;;;;;;5074143;28;20249;-42
2023/12/20 05:23:09;;;;;;;0.70;0.40;;;7.70;1.00;;;;;;5074247;28;20677;-43
2023/12/20 05:25:34;;;;;;;1.30;0.50;;;7.70;1.00;;;;;;5074173;28;20191;-41
2023/12/20 05:28:00;;;;;;;0.90;0.50;;;7.70;1.00;;;;;;5072618;28;20185;-43
2023/12/20 05:30:26;;;;;;;0.83;0.40;;;7.70;1.00;;;;;;5053936;28;20177;-44
2023/12/20 05:32:52;;;;;;;0.90;0.43;;;7.70;1.00;;;;;;5070917;28;20205;-43
2023/12/20 05:35:17;;;;;;;2.03;0.63;;;7.70;1.00;;;;;;5072659;28;20455;-41
2023/12/20 05:37:43;;;;;;;0.90;0.50;;;7.80;1.00;;;;;;5073876;28;20586;-41
2023/12/20 05:40:11;;;;;;;1.23;0.67;;;7.80;1.00;;;;;;5073156;28;20181;-40
2023/12/20 05:42:40;;;;;;;0.70;0.40;;;7.80;1.00;;;;;;5074377;28;20181;-42
2023/12/20 05:45:06;;;;;;;1.00;0.53;;;7.80;1.00;;;;;;5075586;28;20845;-42
2023/12/20 05:47:31;;;;;;;1.00;0.40;;;7.80;99.90;;;;;;5075692;28;20721;-41
2023/12/20 05:49:57;;;;;;;0.70;0.30;;;7.80;99.90;;;;;;5074011;28;20622;-41
2023/12/20 05:52:22;;;;;;;0.97;0.60;;;7.80;99.90;;;;;;5073195;28;20225;-41
2023/12/20 05:54:48;;;;;;;0.90;0.60;;;7.80;99.90;;;;;;5072502;28;20211;-41
2023/12/20 05:57:13;;;;;;;0.97;0.40;;;7.80;99.90;;;;;;5074603;28;20201;-41
2023/12/20 05:59:39;;;;;;;1.60;0.40;;;7.80;99.90;;;;;;5074196;28;20463;-40
2023/12/20 06:02:05;;;;;;;0.90;0.50;;;7.80;99.90;;;;;;5072041;28;20193;-42
2023/12/20 06:04:31;;;;;;;1.37;0.83;;;7.80;99.90;;;;;;5074123;28;20184;-41
2023/12/20 06:06:57;;;;;;;1.00;0.53;;;7.80;1.00;;;;;;5073272;28;20245;-42
2023/12/20 06:09:24;;;;;;;1.60;0.67;;;7.80;1.00;;;;;;5053787;28;20399;-41
2023/12/20 06:11:50;;;;;;;1.00;0.70;;;7.80;1.00;;;;;;5070684;28;20551;-41
2023/12/20 06:14:16;;;;;;;0.80;0.50;;;7.80;1.00;;;;;;5071579;28;20800;-40
2023/12/20 06:16:42;;;;;;;0.90;0.50;;;7.80;1.00;;;;;;5072825;28;20470;-42
2023/12/20 06:19:07;;;;;;;0.97;0.60;;;7.70;1.00;;;;;;5074203;28;20181;-42
2023/12/20 06:21:34;;;;;;;0.70;0.30;;;7.70;1.00;;;;;;5070603;28;20209;-42
2023/12/20 06:24:00;;;;;;;1.00;0.50;;;7.70;1.00;;;;;;5069585;28;20483;-42
2023/12/20 06:26:25;;;;;;;2.10;0.50;;;7.70;1.00;;;;;;5071604;28;20519;-42
2023/12/20 06:28:51;;;;;;;1.87;0.80;;;7.70;1.00;;;;;;5073816;28;20310;-41
2023/12/20 06:31:16;;;;;;;1.30;0.60;;;7.70;1.00;;;;;;5074101;28;20582;-40
2023/12/20 06:33:43;;;;;;;1.30;0.60;;;7.70;1.00;;;;;;5074284;28;20610;-43
2023/12/20 06:36:11;;;;;;;1.00;0.77;;;7.70;1.00;;;;;;5077257;28;20284;-41
2023/12/20 06:38:37;;;;;;;1.20;0.70;;;7.70;1.00;;;;;;5077316;28;20651;-42
2023/12/20 06:41:03;;;;;;;1.30;1.00;;;7.70;11.60;;;;;;5077757;28;20449;-41
2023/12/20 06:43:29;;;;;;;0.90;0.70;;;7.70;40.00;;;;;;5077369;28;20178;-41
2023/12/20 06:45:55;;;;;;;1.00;0.60;;;7.70;77.70;;;;;;5074638;28;20181;-41
2023/12/20 06:48:20;;;;;;;1.10;0.77;;;7.70;99.90;;;;;;5074459;28;20429;-43
2023/12/20 06:50:46;;;;;;;0.93;0.50;;;7.70;99.90;;;;;;5077244;28;20488;-43
2023/12/20 06:53:11;;;;;;;1.00;0.50;;;7.70;99.90;;;;;;5058623;28;20646;-41
2023/12/20 06:55:38;;;;;;;1.03;0.70;;;7.70;99.90;;;;;;5077810;28;20267;-41
2023/12/20 06:58:04;;;;;;;1.30;0.80;;;7.60;99.90;;;;;;5077143;28;20189;-42
2023/12/20 07:00:30;;;;;;;1.10;0.47;;;7.70;99.90;;;;;;5077046;28;20868;-42
2023/12/20 07:02:55;;;;;;;0.90;0.57;;;7.70;99.90;;;;;;5076932;28;20200;-41
2023/12/20 07:05:21;;;;;;;1.20;0.60;;;7.70;99.90;;;;;;5061148;28;20423;-40
2023/12/20 07:07:48;;;;;;;1.07;0.73;;;7.70;99.90;;;;;;5079018;28;20180;-42
2023/12/20 07:10:13;;;;;;;0.80;0.60;;;7.70;99.90;;;;;;5077304;28;20196;-40
2023/12/20 07:12:39;;;;;;;1.07;0.60;;;7.70;99.90;;;;;;5076312;28;20407;-41
2023/12/20 07:15:07;;;;;;;1.10;0.60;;;7.70;99.90;;;;;;5060168;28;20193;-42
2023/12/20 07:17:34;;;;;;;1.67;0.80;;;7.70;99.90;;;;;;5077104;28;20211;-40
2023/12/20 07:20:03;;;;;;;1.20;0.73;;;7.60;99.90;;;;;;5060087;28;20594;-40
2023/12/20 07:22:31;;;;;;;1.47;0.80;;;7.70;99.90;;;;;;5078482;28;20425;-40
2023/12/20 07:24:57;;;;;;;1.33;0.87;;;7.60;99.90;;;;;;5077098;28;20516;-40
2023/12/20 07:27:23;;;;;;;1.87;0.60;;;7.70;99.90;;;;;;5077363;28;20434;-40
2023/12/20 07:29:48;;;;;;;1.20;0.70;;;7.70;99.90;;;;;;5076992;28;20825;-41
2023/12/20 07:32:14;;;;;;;1.63;0.73;;;7.70;99.90;;;;;;5078590;28;20185;-41
2023/12/20 07:34:39;;;;;;;1.40;0.63;;;7.70;99.90;;;;;;5059217;28;20180;-41
2023/12/20 07:37:04;;;;;;;1.30;0.80;;;7.70;99.90;;;;;;5059947;28;20533;-41
2023/12/20 07:39:30;;;;;;;1.90;1.00;;;7.70;1.00;;;;;;5077400;28;20180;-42
2023/12/20 07:41:55;;;;;;;1.23;0.90;;;7.70;1.00;;;;;;5078115;28;20203;-40
2023/12/20 07:44:21;;;;;;;1.50;1.10;;;7.60;1.00;;;;;;5075050;28;20177;-41
2023/12/20 07:46:48;;;;;;;1.97;1.00;;;7.60;1.00;;;;;;5077898;28;20184;-40
2023/12/20 07:49:14;;;;;;;1.43;1.20;;;7.70;1.00;;;;;;5076151;28;20173;-44
2023/12/20 07:51:39;;;;;;;1.23;0.97;;;7.70;1.00;;;;;;5076120;28;20470;-44
2023/12/20 07:54:05;;;;;;;1.60;1.30;;;7.70;1.00;;;;;;5077066;28;20544;-40
2023/12/20 07:56:30;;;;;;;1.53;1.30;;;7.70;1.00;;;;;;5077658;28;20208;-41
2023/12/20 07:58:56;;;;;;;1.90;1.40;;;7.70;1.00;;;;;;5076247;28;20209;-40
2023/12/20 08:01:22;;;;;;;2.70;1.93;;;7.70;1.00;;;;;;5074427;28;20177;-40
2023/12/20 08:03:48;;;;;;;1.30;1.17;;;7.70;1.00;;;;;;5059326;28;20177;-42
2023/12/20 08:06:14;;;;;;;3.30;1.60;;;7.70;1.00;;;;;;5076827;28;20585;-43
2023/12/20 08:08:40;;;;;;;2.63;1.50;;;7.70;1.00;;;;;;5077494;28;20531;-43
2023/12/20 08:11:05;;;;;;;2.03;1.77;;;7.70;99.90;;;;;;5059342;28;20479;-41
2023/12/20 08:13:31;;;;;;;1.87;1.77;;;7.70;1.00;;;;;;5074714;28;20245;-42
2023/12/20 08:15:56;;;;;;;2.33;2.13;;;7.70;1.00;;;;;;5074091;28;20263;-40
2023/12/20 08:18:23;;;;;;;2.17;1.80;;;7.70;1.00;;;;;;5076071;28;20199;-40
2023/12/20 08:20:48;;;;;;;2.27;1.80;;;7.70;1.00;;;;;;5076455;28;20208;-40
2023/12/20 08:23:14;;;;;;;2.13;1.93;;;7.70;1.00;;;;;;5059283;28;20455;-41
2023/12/20 08:25:40;;;;;;;1.90;1.73;;;7.80;1.00;;;;;;5042183;28;20181;-42
2023/12/20 08:28:06;;;;;;;2.90;2.33;;;7.70;1.00;;;;;;5077290;28;20883;-43
2023/12/20 08:30:32;;;;;;;2.07;1.87;;;7.80;1.00;;;;;;5076856;28;20520;-41
2023/12/20 08:33:00;;;;;;;2.30;1.97;;;7.80;1.00;;;;;;5095069;28;20176;-41
2023/12/20 08:35:25;;;;;;;2.97;2.20;;;7.80;1.00;;;;;;5076804;28;20592;-42
2023/12/20 08:37:51;;;;;;;2.73;2.07;;;7.80;1.00;;;;;;5094641;28;20576;-42
2023/12/20 08:40:16;;;;;;;3.00;1.80;;;7.90;1.00;;;;;;5093638;28;20177;-41
2023/12/20 08:42:42;;;;;;;1.93;1.73;;;7.80;1.00;;;;;;5095289;28;20176;-42
2023/12/20 08:45:08;;;;;;;2.17;1.53;;;7.90;1.00;;;;;;5096426;28;20171;-41
2023/12/20 08:47:33;;;;;;;2.30;2.10;;;7.90;1.00;;;;;;5097041;28;20512;-40
2023/12/20 08:50:01;;;;;;;3.53;1.90;;;7.90;99.90;;;;;;5097534;28;20521;-42
2023/12/20 08:52:27;;;;;;;1.80;1.70;;;7.90;99.90;;;;;;5097371;28;20199;-41
2023/12/20 08:54:53;;;;;;;2.10;1.90;;;7.90;99.90;;;;;;5097050;28;20410;-45
2023/12/20 08:57:23;;;;;;;2.20;1.90;;;7.90;99.90;;;;;;5097863;28;20212;-42
2023/12/20 08:59:49;;;;;;;2.60;2.00;;;7.90;15.20;;;;;;5094643;28;20593;-41
2023/12/20 09:02:20;;;;;;;4.70;2.27;;;7.90;1.00;;;;;;5113167;27;20554;-46
2023/12/20 09:04:46;;;;;;;2.67;1.50;;;7.90;1.00;;;;;;5112679;28;20831;-40
2023/12/20 09:07:22;;;;;;;1.93;1.70;;;7.90;99.90;;;;;;5112838;28;20255;-41
2023/12/20 09:09:47;;;;;;;2.20;1.43;;;7.90;5.90;;;;;;5111266;28;20176;-41
2023/12/20 09:12:13;;;;;;;2.60;2.00;;;7.90;1.00;;;;;;5112010;28;20496;-42
2023/12/20 09:14:38;;;;;;;2.50;1.80;;;7.90;99.90;;;;;;5113922;28;20507;-42
2023/12/20 09:17:04;;;;;;;3.30;2.20;;;8.00;1.00;;;;;;5113002;28;20226;-41
2023/12/20 09:19:29;;;;;;;5.00;2.00;;;8.20;99.90;;;;;;5112421;28;20176;-43
2023/12/20 09:21:55;;;;;;;3.33;2.00;;;8.30;1.00;;;;;;5112630;28;20458;-41
2023/12/20 09:24:20;;;;;;;3.40;1.73;;;8.50;99.90;;;;;;5111863;28;20184;-41
2023/12/20 09:26:46;;;;;;;6.90;1.93;;;8.60;1.00;;;;;;5112653;28;20171;-44
2023/12/20 09:29:15;;;;;;;4.00;1.50;;;8.70;99.90;;;;;;5112248;28;20198;-43
2023/12/20 09:31:41;;;;;;;7.30;1.80;;;8.70;2.00;;;;;;5111647;28;20201;-43
2023/12/20 09:34:06;;;;;;;11.80;1.90;;;10.60;1.00;;;;;;5109989;28;20425;-47
2023/12/20 09:36:35;;;;;;;2.40;1.67;;;12.90;1.00;;;;;;5112826;28;20425;-44
2023/12/20 09:39:01;;;;;;;5.50;1.60;;;13.70;1.00;;;;;;5111355;28;20168;-40
2023/12/20 09:41:28;;;;;;;5.13;1.80;;;14.70;1.00;;;;;;5110588;28;20461;-39
2023/12/20 09:43:54;;;;;;;7.30;1.77;;;15.70;99.90;;;;;;5093815;28;20180;-44
2023/12/20 09:46:24;;;;;;;5.20;1.70;;;16.70;99.90;;;;;;5112159;28;20453;-42
2023/12/20 09:48:50;;;;;;;4.07;1.30;;;17.50;99.90;;;;;;5112152;28;20735;-44
2023/12/20 09:54:38;;;;;;;5.27;1.37;;;17.90;99.90;;;;;;5125361;28;20582;-41
2023/12/20 09:57:04;;;;;;;4.03;1.63;;;17.90;99.90;;;;;;5132215;28;20425;-41
2023/12/20 09:59:30;;;;;;;3.33;1.50;;;18.10;99.90;;;;;;5133265;27;20357;-41
2023/12/20 10:01:56;;;;;;;9.30;1.77;;;18.60;1.00;;;;;;5115549;28;20463;-43
2023/12/20 10:04:22;;;;;;;2.50;1.00;;;19.40;1.00;;;;;;5132130;28;20167;-43
2023/12/20 10:06:48;;;;;;;3.93;2.83;;;20.30;1.00;;;;;;5132235;28;20478;-43
2023/12/20 10:09:14;;;;;;;9.43;1.53;;;21.10;1.00;;;;;;5131639;27;20171;-44
2023/12/20 10:11:40;;;;;;;5.20;1.47;;;21.90;1.00;;;;;;5129211;28;20526;-42
2023/12/20 10:14:06;;;;;;;5.00;1.10;;;22.00;1.00;;;;;;5118228;28;20455;-42
2023/12/20 10:16:32;;;;;;;4.33;1.80;;;22.10;1.00;;;;;;5118957;28;20429;-40
2023/12/20 10:18:58;;;;;;;2.50;1.30;;;21.60;1.00;;;;;;5118558;28;20429;-41
2023/12/20 10:21:26;;;;;;;2.80;1.40;;;20.90;1.00;;;;;;5117738;28;20563;-40
2023/12/20 10:23:58;;;;;;;3.07;1.20;;;20.30;1.00;;;;;;5115773;28;20410;-40
2023/12/20 10:26:25;;;;;;;2.63;1.30;;;19.70;1.00;;;;;;5097310;28;20398;-41
2023/12/20 10:28:53;;;;;;;7.00;2.03;;;19.10;1.00;;;;;;5098634;28;20488;-45
2023/12/20 10:31:30;;;;;;;3.87;1.30;;;18.60;1.00;;;;;;5098533;28;20426;-39
2023/12/20 10:33:57;;;;;;;4.53;1.60;;;18.30;1.00;;;;;;5097289;28;21009;-42
2023/12/20 10:36:23;;;;;;;3.53;1.30;;;18.10;1.00;;;;;;5098645;28;20452;-39
2023/12/20 10:38:51;;;;;;;3.37;1.60;;;17.80;1.00;;;;;;5095400;28;20433;-39
2023/12/20 10:41:18;;;;;;;3.50;2.17;;;17.50;1.00;;;;;;5097646;28;20493;-40
2023/12/20 10:43:45;;;;;;;3.07;1.80;;;17.20;1.00;;;;;;5095700;28;20423;-40
2023/12/20 10:46:11;;;;;;;4.13;2.00;;;16.60;1.00;;;;;;5096199;28;20441;-43
2023/12/20 10:48:38;;;;;;;3.50;1.87;;;15.90;1.00;;;;;;5078812;28;20479;-40
2023/12/20 10:51:05;;;;;;;1.97;1.17;;;15.20;1.00;;;;;;5097475;28;20188;-40
2023/12/20 10:53:31;;;;;;;4.67;2.00;;;14.50;1.00;;;;;;5092755;28;20466;-40
2023/12/20 10:56:00;;;;;;;2.80;1.53;;;14.10;1.00;;;;;;5095446;28;20438;-41
2023/12/20 10:58:26;;;;;;;3.63;1.60;;;13.60;1.00;;;;;;5096329;28;20433;-39
2023/12/20 11:00:59;;;;;;;2.27;1.43;;;13.30;1.00;;;;;;5078418;28;20462;-41
2023/12/20 11:03:26;;;;;;;3.10;1.73;;;12.90;1.00;;;;;;5094306;28;20558;-40
2023/12/20 11:06:05;;;;;;;3.50;1.37;;;12.70;1.00;;;;;;5093481;28;20977;-39
2023/12/20 11:08:40;;;;;;;5.53;2.17;;;12.40;1.00;;;;;;5095384;28;20421;-41
2023/12/20 11:11:07;;;;;;;3.93;1.80;;;12.30;1.00;;;;;;5097266;28;20429;-40
2023/12/20 11:13:55;;;;;;;2.60;1.77;;;12.10;1.00;;;;;;5093666;28;20537;-40
2023/12/20 11:16:21;;;;;;;3.97;1.50;;;11.90;1.00;;;;;;5075269;28;20470;-40
2023/12/20 11:18:46;;;;;;;6.30;2.23;;;11.80;1.00;;;;;;5077131;28;20482;-40
2023/12/20 11:21:14;;;;;;;7.47;1.73;;;11.70;1.00;;;;;;5095901;28;20625;-39
2023/12/20 11:23:42;;;;;;;5.63;1.47;;;11.60;1.00;;;;;;5092639;28;20191;-41
2023/12/20 11:26:08;;;;;;;4.73;1.47;;;11.50;1.00;;;;;;5093619;28;20423;-43
2023/12/20 11:28:34;;;;;;;3.57;2.10;;;11.50;1.00;;;;;;5094261;28;20792;-40
2023/12/20 11:31:01;;;;;;;3.33;1.60;;;11.80;28.00;;;;;;5095268;28;20180;-43
2023/12/20 11:33:39;;;;;;;3.63;1.90;;;11.80;1.00;;;;;;5093216;28;20374;-42
2023/12/20 11:36:13;;;;;;;5.27;2.50;;;11.70;1.00;;;;;;5095570;28;20453;-40
2023/12/20 11:38:42;;;;;;;4.57;2.33;;;11.50;1.00;;;;;;5095633;28;20688;-40
2023/12/20 11:41:08;;;;;;;3.10;1.83;;;11.20;1.00;;;;;;5094721;28;20482;-42
2023/12/20 11:43:38;;;;;;;3.57;2.10;;;11.10;1.00;;;;;;5092943;28;20434;-40
2023/12/20 11:46:09;;;;;;;4.50;1.47;;;11.00;1.00;;;;;;5093400;28;20172;-40
2023/12/20 11:48:37;;;;;;;4.30;1.63;;;10.90;1.00;;;;;;5095732;28;20431;-41
2023/12/20 11:51:03;;;;;;;3.00;1.63;;;10.70;1.00;;;;;;5095797;28;20448;-39
2023/12/20 11:53:33;;;;;;;5.17;1.80;;;10.50;1.00;;;;;;5095020;28;20458;-41
2023/12/20 11:55:59;;;;;;;8.10;1.47;;;10.40;1.00;;;;;;5092804;28;20430;-41
2023/12/20 11:58:25;;;;;;;4.00;1.60;;;10.20;1.00;;;;;;5093336;28;20736;-40
2023/12/20 12:00:51;;;;;;;4.80;2.30;;;10.20;1.00;;;;;;5091493;28;20365;-40
2023/12/20 12:03:17;;;;;;;7.50;4.07;;;10.10;1.00;;;;;;5092079;28;20661;-43
2023/12/20 12:05:42;;;;;;;8.23;5.07;;;10.00;1.00;;;;;;5092976;28;20410;-42
2023/12/20 12:08:08;;;;;;;9.93;4.83;;;9.90;1.00;;;;;;5091754;28;20280;-41
2023/12/20 12:10:33;;;;;;;4.43;3.20;;;9.80;1.00;;;;;;5089994;28;20176;-40
2023/12/20 12:13:00;;;;;;;3.50;2.20;;;9.80;1.00;;;;;;5092566;28;20233;-41
2023/12/20 12:15:27;;;;;;;5.37;2.20;;;9.80;1.00;;;;;;5090313;28;20477;-42
2023/12/20 12:17:54;;;;;;;4.07;2.33;;;9.70;1.00;;;;;;5089653;28;20423;-39
2023/12/20 12:20:20;;;;;;;5.30;1.70;;;9.70;1.00;;;;;;5089234;28;20977;-42
2023/12/20 12:22:47;;;;;;;5.70;1.67;;;9.70;1.00;;;;;;5088602;28;20430;-42
2023/12/20 12:25:13;;;;;;;5.63;2.10;;;9.70;1.00;;;;;;5091278;28;20489;-40
2023/12/20 12:27:42;;;;;;;4.70;1.63;;;9.70;1.00;;;;;;5090185;28;20843;-42
2023/12/20 12:30:09;;;;;;;3.70;2.00;;;9.70;1.00;;;;;;5089939;28;20422;-42
2023/12/20 12:32:35;;;;;;;3.30;1.90;;;9.70;1.00;;;;;;5092083;28;20410;-41
2023/12/20 12:35:03;;;;;;;3.43;1.60;;;9.70;1.00;;;;;;5091981;28;20453;-40
2023/12/20 12:37:29;;;;;;;4.77;1.93;;;9.70;1.00;;;;;;5094382;28;20508;-41
2023/12/20 12:39:55;;;;;;;5.23;2.73;;;9.60;1.00;;;;;;5093931;28;20442;-41
2023/12/20 12:42:21;;;;;;;4.53;1.83;;;9.60;1.00;;;;;;5076109;28;20223;-41
2023/12/20 12:44:47;;;;;;;3.53;2.13;;;9.60;1.00;;;;;;5094361;28;20168;-40
2023/12/20 12:47:12;;;;;;;4.20;2.10;;;9.60;1.00;;;;;;5092391;28;20923;-40
2023/12/20 12:49:39;;;;;;;2.53;1.57;;;9.60;1.00;;;;;;5093972;28;20268;-40
2023/12/20 12:52:05;;;;;;;4.10;2.07;;;9.70;1.00;;;;;;5090489;28;20521;-44
2023/12/20 12:54:31;;;;;;;4.93;1.40;;;10.10;1.00;;;;;;5094232;28;20537;-40
2023/12/20 12:56:58;;;;;;;5.27;1.60;;;10.20;1.00;;;;;;5094313;28;20169;-41
2023/12/20 12:59:23;;;;;;;2.93;1.83;;;10.30;1.00;;;;;;5092579;28;20176;-41